Gabbs, Nevada
Current Conditions -  °F | °C
As of 1:56 PM on Monday 20 Oct 2014 (Local Time) from KNFL Reporting Station
Scattered Clouds Scattered Clouds  
Wind Chill: 79°   Ceiling: Unl
Heat Index: 79°   Visibility: 10mi
Dew Point: 29°   Wind: 10mph
Humidity: 16%   Direction: 200°SSW
Pressure: 29.83"   Gusts: NA
Location:  38.87°N, 117.92°W
Report Text: KNFL 202056Z 20009KT 10SM FEW070 FEW110 SCT200 26/M02 A2983 RMK AO2 SLP080 T02611017 58028
Loading
Personal Weather Stations






























Interactive Weather Map New forecast layout! Learn more

10-Day Weather Forecast

Advertisements
Track Severe Weather on mobile